Terminal Aerodrome Forecast
Issued by NWS La Crosse, WI

Home | Current Version | Previous Version | Text Only | Print | Product List | Glossary On
Versions: 1 2 3 4 5 6 7 8 9 10 11 12 13 14 15 16 17 18 19 20 21 22 23 24 25 26 27 28 29 30 31 32 33 34 35 36 37 38 39 40 41 42 43 44
000
FTUS43 KARX 220520
TAFRST
TAF
KRST 220520Z 2206/2306 19006KT 6SM HZ SKC
     FM220800 VRB03KT 2SM BR SCT002
      TEMPO 2210/2214 1/4SM FG BKN002
     FM221500 24005KT 5SM HZ SCT040
     FM221800 02007KT P6SM SCT150=

USA.gov is the U.S. government's official web portal to all federal, state and local government web resources and services.